createdAt,value
2019-02-21T00:01:49.415Z,101457.25
2019-02-21T00:04:21.612Z,101460.31
2019-02-21T00:06:53.649Z,101459.91
2019-02-21T00:09:25.373Z,101465.96
2019-02-21T00:11:57.343Z,101468.13
2019-02-21T00:14:29.359Z,101462.52
2019-02-21T00:17:01.068Z,101466.41
2019-02-21T00:19:33.081Z,101462.08
2019-02-21T00:22:05.087Z,101463.80
2019-02-21T00:24:37.040Z,101465.53
2019-02-21T00:27:08.873Z,101465.52
2019-02-21T00:29:40.663Z,101466.40
2019-02-21T00:32:12.375Z,101468.59
2019-02-21T00:34:44.402Z,101476.78
2019-02-21T00:37:16.033Z,101475.94
2019-02-21T00:39:48.571Z,101480.24
2019-02-21T00:42:21.599Z,101477.22
2019-02-21T00:44:55.725Z,101478.08
2019-02-21T00:47:27.390Z,101471.14
2019-02-21T00:49:59.761Z,101477.64
2019-02-21T00:52:31.606Z,101475.02
2019-02-21T00:55:03.639Z,101479.78
2019-02-21T00:57:35.326Z,101482.80
2019-02-21T01:00:08.679Z,101483.61
2019-02-21T01:02:41.710Z,101480.17
2019-02-21T01:05:13.810Z,101474.97
2019-02-21T01:07:46.551Z,101482.32
2019-02-21T01:10:18.578Z,101492.25
2019-02-21T01:12:52.030Z,101490.94
2019-02-21T01:15:29.106Z,101491.80
2019-02-21T01:18:00.739Z,101495.25
2019-02-21T01:20:33.333Z,101497.39
2019-02-21T01:23:06.420Z,101501.29
2019-02-21T01:25:38.302Z,101499.97
2019-02-21T01:28:11.206Z,101503.42
2019-02-21T01:30:43.245Z,101504.31
2019-02-21T01:33:16.154Z,101507.36
2019-02-21T01:35:48.253Z,101511.33
2019-02-21T01:38:22.989Z,101508.31
2019-02-21T01:40:54.983Z,101502.25
2019-02-21T01:43:26.619Z,101500.96
2019-02-21T01:45:58.250Z,101504.45
2019-02-21T01:48:29.885Z,101501.45
2019-02-21T01:51:01.552Z,101501.02
2019-02-21T01:53:33.500Z,101502.78
2019-02-21T01:56:05.103Z,101506.68
2019-02-21T01:58:36.844Z,101501.48
2019-02-21T02:01:09.084Z,101499.34
2019-02-21T02:03:42.571Z,101496.31
2019-02-21T02:06:14.213Z,101491.98
2019-02-21T02:08:46.514Z,101491.55
2019-02-21T02:11:18.194Z,101489.36
2019-02-21T02:13:50.355Z,101486.77
2019-02-21T02:16:23.903Z,101481.13
2019-02-21T02:18:57.002Z,101485.48
2019-02-21T02:21:29.362Z,101487.22
2019-02-21T02:24:01.219Z,101486.34
2019-02-21T02:26:34.016Z,101490.66
2019-02-21T02:29:05.980Z,101486.78
2019-02-21T02:31:37.623Z,101488.51
2019-02-21T02:34:09.220Z,101487.63
2019-02-21T02:36:41.215Z,101490.69
2019-02-21T02:39:14.581Z,101488.50
2019-02-21T02:41:46.521Z,101498.49
2019-02-21T02:44:18.682Z,101502.36
2019-02-21T02:46:50.342Z,101491.11
2019-02-21T02:49:22.009Z,101495.86
2019-02-21T02:51:53.597Z,101503.66
2019-02-21T02:54:25.282Z,101507.97
2019-02-21T02:56:56.921Z,101510.98
2019-02-21T02:59:40.250Z,101509.25
2019-02-21T03:02:02.321Z,101512.27
2019-02-21T03:04:34.018Z,101507.94
2019-02-21T03:07:05.644Z,101511.40
2019-02-21T03:09:37.279Z,101501.00
2019-02-21T03:12:09.287Z,101502.33
2019-02-21T03:14:40.936Z,101504.06
2019-02-21T03:17:12.666Z,101501.00
2019-02-21T03:19:44.645Z,101507.06
2019-02-21T03:22:16.283Z,101502.30
2019-02-21T03:24:48.193Z,101505.78
2019-02-21T03:27:19.848Z,101505.31
2019-02-21T03:29:51.520Z,101508.36
2019-02-21T03:32:23.633Z,101503.15
2019-02-21T03:34:55.682Z,101509.61
2019-02-21T03:37:27.282Z,101515.26
2019-02-21T03:39:58.900Z,101517.44
2019-02-21T03:42:30.586Z,101521.37
2019-02-21T03:45:02.536Z,101516.19
2019-02-21T03:47:34.327Z,101514.45
2019-02-21T03:50:07.381Z,101519.70
2019-02-21T03:52:39.054Z,101517.09
2019-02-21T03:55:10.662Z,101524.47
2019-02-21T03:57:44.311Z,101517.56
2019-02-21T04:00:16.165Z,101525.34
2019-02-21T04:02:47.915Z,101519.27
2019-02-21T04:05:20.858Z,101526.67
2019-02-21T04:07:52.970Z,101524.06
2019-02-21T04:10:26.054Z,101529.70
2019-02-21T04:12:57.828Z,101535.33
2019-02-21T04:15:30.997Z,101539.67
2019-02-21T04:23:06.173Z,101535.75
2019-02-21T04:25:37.950Z,101542.25
2019-02-21T04:28:10.285Z,101550.49
2019-02-21T04:30:41.966Z,101543.98
2019-02-21T04:33:13.909Z,101547.44
2019-02-21T04:35:45.492Z,101546.59
2019-02-21T04:38:17.136Z,101547.47
2019-02-21T04:40:48.736Z,101540.08
2019-02-21T04:43:20.785Z,101540.97
2019-02-21T04:45:53.527Z,101534.88
2019-02-21T04:48:25.600Z,101529.27
2019-02-21T04:50:57.320Z,101534.03
2019-02-21T04:53:29.341Z,101538.35
2019-02-21T04:56:01.177Z,101527.06
2019-02-21T04:58:32.859Z,101526.20
2019-02-21T05:01:04.534Z,101529.23
2019-02-21T05:03:36.996Z,101527.47
2019-02-21T05:06:08.646Z,101525.73
2019-02-21T05:08:40.324Z,101526.56
2019-02-21T05:11:12.060Z,101527.44
2019-02-21T05:13:45.271Z,101529.22
2019-02-21T05:16:16.964Z,101523.11
2019-02-21T05:18:48.588Z,101529.60
2019-02-21T05:21:21.659Z,101534.83
2019-02-21T05:23:53.344Z,101532.20
2019-02-21T05:26:39.724Z,101537.41
2019-02-21T05:29:12.772Z,101535.67
2019-02-21T05:32:01.330Z,101525.23
2019-02-21T05:34:40.711Z,101530.02
2019-02-21T05:37:37.301Z,101529.98
2019-02-21T05:40:28.957Z,101538.68
2019-02-21T05:43:16.527Z,101534.75
2019-02-21T05:46:01.869Z,101536.05
2019-02-21T05:48:58.769Z,101537.77
2019-02-21T05:51:35.354Z,101535.16
2019-02-21T05:54:17.826Z,101544.72
2019-02-21T05:57:07.563Z,101543.39
2019-02-21T05:59:54.724Z,101550.77
2019-02-21T06:02:53.422Z,101545.54
2019-02-21T06:05:43.444Z,101548.59
2019-02-21T06:08:33.987Z,101550.30
2019-02-21T06:11:26.918Z,101548.13
2019-02-21T06:14:13.938Z,101552.91
2019-02-21T06:17:08.216Z,101554.21
2019-02-21T06:20:04.550Z,101549.84
2019-02-21T06:22:55.312Z,101556.81
2019-02-21T06:25:52.992Z,101554.63
2019-02-21T06:28:27.970Z,101562.05
2019-02-21T06:31:09.818Z,101554.69
2019-02-21T06:33:42.201Z,101556.86
2019-02-21T06:36:14.330Z,101555.12
2019-02-21T06:38:46.598Z,101560.77
2019-02-21T06:41:18.358Z,101565.95
2019-02-21T06:43:52.593Z,101569.86
2019-02-21T06:46:24.768Z,101566.37
2019-02-21T06:48:57.040Z,101565.48
2019-02-21T06:51:28.869Z,101564.58
2019-02-21T06:54:00.531Z,101573.28
2019-02-21T06:56:32.407Z,101573.69
2019-02-21T06:59:04.064Z,101570.19
2019-02-21T07:01:36.327Z,101568.85
2019-02-21T07:04:08.757Z,101567.09
2019-02-21T07:06:40.375Z,101571.41
2019-02-21T07:09:12.133Z,101572.71
2019-02-21T07:11:45.957Z,101567.46
2019-02-21T07:14:18.510Z,101581.78
2019-02-21T07:16:50.932Z,101580.91
2019-02-21T07:19:23.408Z,101585.22
2019-02-21T07:21:55.063Z,101598.23
2019-02-21T07:24:27.061Z,101599.11
2019-02-21T07:26:59.168Z,101601.68
2019-02-21T07:29:32.599Z,101602.08
2019-02-21T07:32:07.808Z,101605.12
2019-02-21T07:34:40.126Z,101599.00
2019-02-21T07:37:18.533Z,101597.23
2019-02-21T07:39:46.319Z,101604.59
2019-02-21T07:42:17.955Z,101613.25
2019-02-21T07:44:49.752Z,101612.38
2019-02-21T07:47:21.558Z,101620.61
2019-02-21T07:49:53.903Z,101624.92
2019-02-21T07:52:26.227Z,101626.63
2019-02-21T07:55:01.840Z,101625.28
2019-02-21T07:57:31.526Z,101626.14
2019-02-21T08:00:03.380Z,101623.50
2019-02-21T08:02:35.114Z,101622.14
2019-02-21T08:05:08.013Z,101632.55
2019-02-21T08:07:39.712Z,101635.56
2019-02-21T08:10:12.583Z,101633.37
2019-02-21T08:12:45.479Z,101637.24
2019-02-21T08:15:17.136Z,101633.28
2019-02-21T08:17:48.776Z,101633.66
2019-02-21T08:20:21.099Z,101633.22
2019-02-21T08:22:53.134Z,101628.83
2019-02-21T08:25:24.827Z,101630.56
2019-02-21T08:27:56.798Z,101620.06
2019-02-21T08:30:29.380Z,101622.63
2019-02-21T08:33:12.348Z,101624.80
2019-02-21T08:35:43.966Z,101623.44
2019-02-21T08:38:16.041Z,101616.42
2019-02-21T08:40:47.749Z,101612.45
2019-02-21T08:43:19.413Z,101612.86
2019-02-21T08:45:51.102Z,101614.06
2019-02-21T08:48:23.063Z,101620.11
2019-02-21T08:50:54.725Z,101617.42
2019-02-21T08:53:28.098Z,101616.05
2019-02-21T08:55:59.968Z,101619.90
2019-02-21T08:58:31.866Z,101624.16
2019-02-21T09:01:03.603Z,101624.53
2019-02-21T09:03:35.263Z,101624.44
2019-02-21T09:06:06.951Z,101624.75
2019-02-21T09:08:39.522Z,101622.85
2019-02-21T09:11:11.642Z,101620.09
2019-02-21T09:13:43.283Z,101616.89
2019-02-21T09:16:17.670Z,101621.59
2019-02-21T09:18:48.313Z,101630.66
2019-02-21T09:21:20.782Z,101633.17
2019-02-21T09:23:52.752Z,101632.60
2019-02-21T09:26:24.534Z,101632.86
2019-02-21T09:28:58.517Z,101633.53
2019-02-21T09:31:29.592Z,101632.93
2019-02-21T09:34:01.367Z,101629.27
2019-02-21T09:36:33.076Z,101626.11
2019-02-21T09:39:05.869Z,101630.80
2019-02-21T09:41:37.500Z,101631.52
2019-02-21T09:44:09.684Z,101631.41
2019-02-21T09:46:41.668Z,101631.72
2019-02-21T09:49:13.497Z,101629.43
2019-02-21T09:51:45.247Z,101638.91
2019-02-21T09:54:19.191Z,101638.33
2019-02-21T09:56:53.048Z,101639.45
2019-02-21T09:59:24.582Z,101637.11
2019-02-21T10:01:57.633Z,101637.39
2019-02-21T10:04:32.420Z,101637.64
2019-02-21T10:07:03.038Z,101641.77
2019-02-21T10:09:35.886Z,101630.13
2019-02-21T10:12:07.528Z,101629.52
2019-02-21T10:14:39.150Z,101634.77
2019-02-21T10:17:11.468Z,101626.95
2019-02-21T10:19:43.409Z,101629.57
2019-02-21T10:22:16.185Z,101629.85
2019-02-21T10:24:50.132Z,101624.44
2019-02-21T10:27:21.736Z,101628.13
2019-02-21T10:29:53.507Z,101628.33
2019-02-21T10:32:25.138Z,101626.76
2019-02-21T10:34:56.789Z,101634.92
2019-02-21T10:37:28.549Z,101628.65
2019-02-21T10:40:00.333Z,101630.32
2019-02-21T10:42:32.204Z,101625.84
2019-02-21T10:45:04.909Z,101620.52
2019-02-21T10:47:36.622Z,101622.55
2019-02-21T10:50:14.045Z,101618.91
2019-02-21T10:52:45.810Z,101618.27
2019-02-21T10:55:19.403Z,101621.52
2019-02-21T10:57:52.750Z,101612.00
2019-02-21T11:00:28.759Z,101619.44
2019-02-21T11:03:00.674Z,101615.34
2019-02-21T11:05:32.582Z,101617.80
2019-02-21T11:08:04.246Z,101621.14
2019-02-21T11:10:36.207Z,101617.13
2019-02-21T11:13:08.276Z,101612.32
2019-02-21T11:15:42.065Z,101616.31
2019-02-21T11:18:14.114Z,101608.80
2019-02-21T11:20:45.745Z,101604.50
2019-02-21T11:23:18.058Z,101604.14
2019-02-21T11:25:49.838Z,101602.20
2019-02-21T11:28:21.589Z,101599.11
2019-02-21T11:30:53.232Z,101600.02
2019-02-21T11:33:24.908Z,101596.55
2019-02-21T11:35:56.713Z,101593.17
2019-02-21T11:38:28.436Z,101596.88
2019-02-21T11:41:00.077Z,101593.53
2019-02-21T11:43:32.206Z,101589.69
2019-02-21T11:46:04.265Z,101589.69
2019-02-21T11:48:36.134Z,101580.01
2019-02-21T11:51:10.636Z,101577.66
2019-02-21T11:53:42.305Z,101572.19
2019-02-21T11:56:15.841Z,101564.45
2019-02-21T11:58:47.993Z,101564.70
2019-02-21T12:01:19.839Z,101565.77
2019-02-21T12:03:53.087Z,101561.19
2019-02-21T12:06:24.736Z,101557.88
2019-02-21T12:08:56.610Z,101557.59
2019-02-21T12:11:28.446Z,101557.23
2019-02-21T12:14:00.083Z,101559.52
2019-02-21T12:16:38.676Z,101564.86
2019-02-21T12:19:10.869Z,101557.48
2019-02-21T12:21:42.532Z,101563.38
2019-02-21T12:24:14.381Z,101560.45
2019-02-21T12:26:46.106Z,101555.35
2019-02-21T12:29:18.289Z,101555.91
2019-02-21T12:31:51.649Z,101555.27
2019-02-21T12:34:23.873Z,101553.75
2019-02-21T12:36:55.658Z,101549.73
2019-02-21T12:39:27.350Z,101557.08
2019-02-21T12:41:59.148Z,101549.15
2019-02-21T12:44:30.851Z,101551.52
2019-02-21T12:47:02.596Z,101551.11
2019-02-21T12:49:34.524Z,101551.66
2019-02-21T12:52:06.544Z,101550.48
2019-02-21T12:54:38.198Z,101544.92
2019-02-21T12:57:11.193Z,101546.89
2019-02-21T12:59:43.130Z,101547.20
2019-02-21T13:02:15.843Z,101539.51
2019-02-21T13:04:47.601Z,101541.01
2019-02-21T13:07:19.713Z,101535.41
2019-02-21T13:09:52.169Z,101533.31
2019-02-21T13:12:24.082Z,101535.50
2019-02-21T13:14:55.746Z,101531.00
2019-02-21T13:17:27.443Z,101526.08
2019-02-21T13:19:59.124Z,101524.30
2019-02-21T13:22:31.216Z,101518.83
2019-02-21T13:25:02.905Z,101520.30
2019-02-21T13:27:34.581Z,101520.83
2019-02-21T13:30:15.558Z,101513.84
2019-02-21T13:32:47.287Z,101509.45
2019-02-21T13:35:19.116Z,101516.55
2019-02-21T13:37:51.240Z,101510.66
2019-02-21T13:40:22.937Z,101506.05
2019-02-21T13:42:54.804Z,101508.17
2019-02-21T13:45:26.786Z,101512.09
2019-02-21T13:47:58.534Z,101508.98
2019-02-21T13:50:30.674Z,101503.30
2019-02-21T13:53:03.122Z,101502.43
2019-02-21T13:55:34.768Z,101502.08
2019-02-21T13:58:06.791Z,101489.41
2019-02-21T14:00:38.656Z,101488.03
2019-02-21T14:03:10.423Z,101485.76
2019-02-21T14:05:42.188Z,101480.87
2019-02-21T14:08:14.647Z,101476.86
2019-02-21T14:10:46.343Z,101493.50
2019-02-21T14:13:18.081Z,101494.34
2019-02-21T14:15:49.726Z,101496.06
2019-02-21T14:18:24.403Z,101502.62
2019-02-21T14:20:56.137Z,101502.02
2019-02-21T14:23:28.557Z,101502.42
2019-02-21T14:26:00.506Z,101508.17
2019-02-21T14:28:32.341Z,101508.63
2019-02-21T14:31:04.092Z,101507.91
2019-02-21T14:33:35.770Z,101504.16
2019-02-21T14:36:15.217Z,101505.88
2019-02-21T14:38:42.018Z,101510.30
2019-02-21T14:41:13.898Z,101512.39
2019-02-21T14:43:45.558Z,101516.67
2019-02-21T14:46:17.443Z,101519.61
2019-02-21T14:48:50.646Z,101525.22
2019-02-21T14:51:22.644Z,101517.64
2019-02-21T14:53:54.312Z,101515.30
2019-02-21T14:56:26.413Z,101510.11
2019-02-21T14:58:58.076Z,101520.59
2019-02-21T15:01:29.815Z,101518.50
2019-02-21T15:04:01.601Z,101520.28
2019-02-21T15:06:33.665Z,101520.33
2019-02-21T15:09:06.079Z,101519.93
2019-02-21T15:11:40.340Z,101521.80
2019-02-21T15:14:12.017Z,101515.24
2019-02-21T15:16:44.337Z,101521.50
2019-02-21T15:19:16.326Z,101515.48
2019-02-21T15:21:48.366Z,101508.23
2019-02-21T15:24:20.192Z,101501.87
2019-02-21T15:26:52.431Z,101494.27
2019-02-21T15:29:24.066Z,101494.65
2019-02-21T15:31:56.012Z,101498.86
2019-02-21T15:34:27.750Z,101504.37
2019-02-21T15:36:59.572Z,101514.78
2019-02-21T15:39:51.856Z,101514.55
2019-02-21T15:42:24.265Z,101514.28
2019-02-21T15:44:56.159Z,101523.76
2019-02-21T15:47:27.866Z,101530.49
2019-02-21T15:49:59.617Z,101531.53
2019-02-21T15:52:31.512Z,101532.95
2019-02-21T15:55:11.846Z,101530.77
2019-02-21T15:57:37.850Z,101524.63
2019-02-21T16:00:12.423Z,101519.30
2019-02-21T16:02:44.114Z,101525.84
2019-02-21T16:05:15.922Z,101522.75
2019-02-21T16:07:47.617Z,101521.84
2019-02-21T16:10:21.719Z,101527.49
2019-02-21T16:12:54.337Z,101527.90
2019-02-21T16:15:26.175Z,101525.72
2019-02-21T16:17:58.612Z,101520.44
2019-02-21T16:20:30.404Z,101508.63
2019-02-21T16:23:02.364Z,101520.11
2019-02-21T16:25:34.101Z,101518.43
2019-02-21T16:28:06.636Z,101525.62
2019-02-21T16:30:38.398Z,101526.66
2019-02-21T16:33:10.096Z,101523.79
2019-02-21T16:35:42.120Z,101528.37
2019-02-21T16:38:14.101Z,101530.25
2019-02-21T16:40:45.857Z,101538.30
2019-02-21T16:43:17.604Z,101538.84
2019-02-21T16:45:53.675Z,101535.52
2019-02-21T16:48:22.999Z,101532.97
2019-02-21T16:50:56.500Z,101532.68
2019-02-21T16:53:28.199Z,101535.91
2019-02-21T16:55:59.910Z,101537.77
2019-02-21T16:58:31.617Z,101544.12
2019-02-21T17:01:04.164Z,101542.19
2019-02-21T17:03:35.903Z,101546.34
2019-02-21T17:06:08.054Z,101546.84
2019-02-21T17:08:41.294Z,101543.42
2019-02-21T17:11:13.688Z,101551.34
2019-02-21T17:13:45.523Z,101550.06
2019-02-21T17:16:17.908Z,101543.55
2019-02-21T17:18:51.481Z,101543.63
2019-02-21T17:21:24.972Z,101547.22
2019-02-21T17:23:56.770Z,101549.27
2019-02-21T17:26:30.995Z,101560.92
2019-02-21T17:29:03.116Z,101571.30
2019-02-21T17:31:37.300Z,101573.72
2019-02-21T17:34:09.104Z,101580.16
2019-02-21T17:36:40.861Z,101591.38
2019-02-21T17:39:12.666Z,101601.25
2019-02-21T17:41:44.389Z,101602.68
2019-02-21T17:44:16.095Z,101607.23
2019-02-21T17:46:48.669Z,101612.64
2019-02-21T17:49:20.362Z,101620.17
2019-02-21T17:51:53.890Z,101624.23
2019-02-21T17:54:27.709Z,101616.89
2019-02-21T17:56:59.576Z,101620.88
2019-02-21T17:59:31.826Z,101618.66
2019-02-21T18:02:04.609Z,101626.00
2019-02-21T18:04:36.351Z,101626.37
2019-02-21T18:07:08.337Z,101632.86
2019-02-21T18:09:40.263Z,101624.02
2019-02-21T18:12:12.682Z,101630.05
2019-02-21T18:14:44.631Z,101630.39
2019-02-21T18:17:17.521Z,101634.30
2019-02-21T18:19:49.338Z,101631.17
2019-02-21T18:22:23.597Z,101639.87
2019-02-21T18:24:55.615Z,101635.47
2019-02-21T18:27:29.254Z,101635.02
2019-02-21T18:30:01.258Z,101633.29
2019-02-21T18:32:33.947Z,101627.56
2019-02-21T18:35:06.415Z,101637.69
2019-02-21T18:37:47.038Z,101639.98
2019-02-21T18:40:18.461Z,101642.66
2019-02-21T18:42:48.080Z,101634.89
2019-02-21T18:45:20.387Z,101636.25
2019-02-21T18:47:52.247Z,101644.23
2019-02-21T18:50:24.622Z,101646.48
2019-02-21T18:52:56.444Z,101651.34
2019-02-21T18:55:28.538Z,101648.39
2019-02-21T18:58:00.326Z,101653.77
2019-02-21T19:00:33.394Z,101654.77
2019-02-21T19:03:05.196Z,101645.62
2019-02-21T19:05:38.067Z,101646.63
2019-02-21T19:08:10.592Z,101638.41
2019-02-21T19:10:43.337Z,101637.16
2019-02-21T19:13:15.270Z,101631.10
2019-02-21T19:15:47.086Z,101634.64
2019-02-21T19:18:18.938Z,101628.50
2019-02-21T19:20:51.924Z,101625.94
2019-02-21T19:23:24.139Z,101628.67
2019-02-21T19:25:56.435Z,101637.06
2019-02-21T19:28:28.262Z,101646.34
2019-02-21T19:31:05.767Z,101648.08
2019-02-21T19:33:39.415Z,101647.97
2019-02-21T19:36:12.056Z,101646.63
2019-02-21T19:38:43.979Z,101646.55
2019-02-21T19:41:15.943Z,101642.61
2019-02-21T19:43:47.817Z,101655.77
2019-02-21T19:46:19.836Z,101654.08
2019-02-21T19:48:51.621Z,101650.13
2019-02-21T19:51:24.408Z,101658.02
2019-02-21T19:53:56.422Z,101661.48
2019-02-21T19:56:28.572Z,101673.30
2019-02-21T19:59:00.648Z,101665.86
2019-02-21T20:01:32.585Z,101665.95
2019-02-21T20:04:04.458Z,101671.26
2019-02-21T20:06:37.321Z,101668.63
2019-02-21T20:09:09.810Z,101672.16
2019-02-21T20:11:41.819Z,101673.54
2019-02-21T20:14:13.764Z,101671.84
2019-02-21T20:16:46.036Z,101678.97
2019-02-21T20:19:18.712Z,101684.72
2019-02-21T20:21:51.313Z,101684.36
2019-02-21T20:24:28.365Z,101692.27
2019-02-21T20:27:01.124Z,101686.58
2019-02-21T20:29:32.973Z,101691.42
2019-02-21T20:32:05.088Z,101691.42
2019-02-21T20:34:37.747Z,101686.19
2019-02-21T20:37:11.528Z,101690.59
2019-02-21T20:39:44.618Z,101684.02
2019-02-21T20:42:17.689Z,101688.89
2019-02-21T20:44:49.735Z,101697.23
2019-02-21T20:47:21.840Z,101702.56
2019-02-21T20:49:57.613Z,101709.20
2019-02-21T20:52:30.025Z,101708.41
2019-02-21T20:55:02.107Z,101710.23
2019-02-21T20:57:34.855Z,101713.34
2019-02-21T21:00:09.408Z,101715.55
2019-02-21T21:02:42.154Z,101712.06
2019-02-21T21:05:16.857Z,101717.70
2019-02-21T21:07:50.841Z,101715.05
2019-02-21T21:10:23.465Z,101718.06
2019-02-21T21:12:56.195Z,101718.13
2019-02-21T21:15:28.440Z,101721.53
2019-02-21T21:18:00.163Z,101723.72
2019-02-21T21:20:32.309Z,101724.16
2019-02-21T21:23:06.229Z,101730.27
2019-02-21T21:25:39.738Z,101727.66
2019-02-21T21:28:11.631Z,101731.19
2019-02-21T21:30:43.651Z,101741.84
2019-02-21T21:33:15.689Z,101736.67
2019-02-21T21:35:49.820Z,101744.63
2019-02-21T21:38:24.386Z,101740.26
2019-02-21T21:40:56.386Z,101745.08
2019-02-21T21:43:29.935Z,101743.83
2019-02-21T21:46:02.350Z,101745.08
2019-02-21T21:48:35.190Z,101750.34
2019-02-21T21:51:11.459Z,101747.26
2019-02-21T21:53:43.636Z,101745.49
2019-02-21T21:56:17.578Z,101751.17
2019-02-21T21:58:49.424Z,101750.73
2019-02-21T22:01:21.683Z,101759.48
2019-02-21T22:03:59.808Z,101756.86
2019-02-21T22:06:31.710Z,101763.89
2019-02-21T22:09:05.239Z,101767.86
2019-02-21T22:11:38.304Z,101768.76
2019-02-21T22:14:10.733Z,101768.82
2019-02-21T22:16:45.729Z,101771.90
2019-02-21T22:19:19.985Z,101771.03
2019-02-21T22:21:55.420Z,101766.22
2019-02-21T22:24:28.861Z,101773.66
2019-02-21T22:27:24.815Z,101772.34
2019-02-21T22:29:58.978Z,101774.98
2019-02-21T22:32:31.768Z,101782.91
2019-02-21T22:35:10.430Z,101780.27
2019-02-21T22:37:46.634Z,101781.17
2019-02-21T22:40:20.919Z,101776.41
2019-02-21T22:42:55.403Z,101783.34
2019-02-21T22:45:27.486Z,101779.88
2019-02-21T22:47:59.631Z,101788.20
2019-02-21T22:50:31.843Z,101784.25
2019-02-21T22:53:03.526Z,101784.25
2019-02-21T22:55:35.622Z,101788.64
2019-02-21T22:58:08.017Z,101793.45
2019-02-21T23:01:20.266Z,101798.72
2019-02-21T23:04:28.462Z,101802.73
2019-02-21T23:07:13.344Z,101802.75
2019-02-21T23:09:45.440Z,101803.65
2019-02-21T23:12:17.973Z,101812.44
2019-02-21T23:14:49.967Z,101798.83
2019-02-21T23:17:21.714Z,101805.86
2019-02-21T23:19:53.759Z,101808.48
2019-02-21T23:22:26.709Z,101813.75
2019-02-21T23:24:58.394Z,101819.46
2019-02-21T23:27:37.080Z,101815.58
2019-02-21T23:30:17.238Z,101815.18
2019-02-21T23:32:52.506Z,101817.36
2019-02-21T23:35:24.671Z,101820.84
2019-02-21T23:37:56.878Z,101823.47
2019-02-21T23:40:29.592Z,101814.26
2019-02-21T23:43:01.315Z,101818.23
2019-02-21T23:45:33.674Z,101815.60
2019-02-21T23:48:05.686Z,101816.02
2019-02-21T23:50:37.390Z,101810.70
2019-02-21T23:53:09.444Z,101809.36
2019-02-21T23:55:41.344Z,101803.67
2019-02-21T23:58:13.092Z,101799.28
